createdAt,value
2022-10-22T00:00:17.713Z,0
2022-10-22T00:01:17.690Z,0
2022-10-22T00:02:17.773Z,0
2022-10-22T00:03:17.752Z,0
2022-10-22T00:04:17.711Z,0
2022-10-22T00:05:17.722Z,0
2022-10-22T00:06:17.706Z,0.5
2022-10-22T00:07:17.725Z,0
2022-10-22T00:08:17.734Z,0.6
2022-10-22T00:09:17.763Z,0.5
2022-10-22T00:10:17.747Z,0.8
2022-10-22T00:11:17.716Z,1.2
2022-10-22T00:12:17.715Z,0.7
2022-10-22T00:13:17.710Z,0
2022-10-22T00:14:17.745Z,0.7
2022-10-22T00:15:17.745Z,0.6
2022-10-22T00:16:17.734Z,1.2
2022-10-22T00:17:17.759Z,0
2022-10-22T00:18:17.733Z,0
2022-10-22T00:19:17.770Z,0
2022-10-22T00:20:17.759Z,0
2022-10-22T00:21:17.778Z,0
2022-10-22T00:22:17.735Z,0
2022-10-22T00:23:17.756Z,0.5
2022-10-22T00:24:17.759Z,0
2022-10-22T00:25:17.782Z,0.5
2022-10-22T00:26:17.750Z,1.1
2022-10-22T00:27:17.753Z,1.3
2022-10-22T00:28:17.748Z,0.8
2022-10-22T00:29:17.752Z,0.7
2022-10-22T00:30:17.774Z,0.8
2022-10-22T00:31:17.763Z,0.9
2022-10-22T00:32:17.754Z,0.5
2022-10-22T00:33:17.783Z,0.8
2022-10-22T00:34:17.780Z,0
2022-10-22T00:35:17.819Z,0
2022-10-22T00:36:17.776Z,0
2022-10-22T00:37:17.772Z,0.8
2022-10-22T00:38:17.779Z,0
2022-10-22T00:39:17.790Z,0
2022-10-22T00:40:17.811Z,0
2022-10-22T00:41:17.791Z,0
2022-10-22T00:42:17.784Z,0.7
2022-10-22T00:43:17.823Z,0.8
2022-10-22T00:44:17.784Z,0.9
2022-10-22T00:45:17.796Z,0.7
2022-10-22T00:46:17.824Z,0.6
2022-10-22T00:47:17.798Z,0
2022-10-22T00:48:17.803Z,0
2022-10-22T00:49:17.801Z,0
2022-10-22T00:50:17.816Z,0
2022-10-22T00:51:17.832Z,0
2022-10-22T00:52:17.815Z,1.1
2022-10-22T00:53:17.847Z,0
2022-10-22T00:54:17.849Z,0
2022-10-22T00:55:17.838Z,0
2022-10-22T00:56:17.844Z,0
2022-10-22T00:57:17.828Z,0.5
2022-10-22T00:58:17.826Z,0
2022-10-22T00:59:17.845Z,0
2022-10-22T01:00:17.855Z,0
2022-10-22T01:01:17.915Z,0
2022-10-22T01:02:17.856Z,0
2022-10-22T01:03:17.835Z,0
2022-10-22T01:04:17.871Z,0
2022-10-22T01:05:17.858Z,0
2022-10-22T01:06:17.873Z,0.6
2022-10-22T01:07:17.867Z,0.8
2022-10-22T01:08:17.887Z,0.5
2022-10-22T01:09:17.868Z,0
2022-10-22T01:10:17.886Z,0
2022-10-22T01:11:17.856Z,0
2022-10-22T01:12:17.869Z,0.7
2022-10-22T01:13:17.854Z,0.5
2022-10-22T01:14:17.856Z,0.6
2022-10-22T01:15:17.867Z,0
2022-10-22T01:16:17.855Z,0
2022-10-22T01:17:17.900Z,0.7
2022-10-22T01:18:17.873Z,0.6
2022-10-22T01:19:17.893Z,0.8
2022-10-22T01:20:17.887Z,0.5
2022-10-22T01:21:17.867Z,0
2022-10-22T01:22:17.873Z,0
2022-10-22T01:23:17.898Z,0.6
2022-10-22T01:24:17.861Z,0
2022-10-22T01:25:17.889Z,0
2022-10-22T01:26:17.955Z,0.6
2022-10-22T01:27:17.868Z,0.8
2022-10-22T01:28:17.887Z,1.1
2022-10-22T01:29:17.871Z,1
2022-10-22T01:30:17.885Z,1.2
2022-10-22T01:31:17.869Z,1.3
2022-10-22T01:32:17.905Z,0.9
2022-10-22T01:33:17.877Z,0
2022-10-22T01:34:17.875Z,0
2022-10-22T01:35:17.886Z,0.5
2022-10-22T01:36:17.884Z,0.8
2022-10-22T01:37:17.884Z,1.1
2022-10-22T01:38:17.880Z,0.6
2022-10-22T01:39:17.913Z,1
2022-10-22T01:40:17.943Z,0.9
2022-10-22T01:41:17.896Z,0
2022-10-22T01:42:17.917Z,0.8
2022-10-22T01:43:17.907Z,0
2022-10-22T01:44:17.916Z,0.5
2022-10-22T01:45:17.926Z,0.8
2022-10-22T01:46:17.930Z,0.9
2022-10-22T01:47:17.916Z,0.8
2022-10-22T01:48:17.917Z,0.6
2022-10-22T01:49:17.949Z,0
2022-10-22T01:50:17.938Z,0
2022-10-22T01:51:17.967Z,0.7
2022-10-22T01:52:17.946Z,0.5
2022-10-22T01:53:17.947Z,0.5
2022-10-22T01:54:17.940Z,0
2022-10-22T01:55:18.011Z,0.7
2022-10-22T01:56:17.963Z,0.8
2022-10-22T01:57:17.947Z,0.9
2022-10-22T01:58:17.959Z,0.5
2022-10-22T01:59:17.969Z,0.5
2022-10-22T02:00:17.957Z,0
2022-10-22T02:01:17.953Z,0.6
2022-10-22T02:02:17.949Z,0.8
2022-10-22T02:03:19.822Z,0
2022-10-22T02:04:17.986Z,1.6
2022-10-22T02:05:17.978Z,2.4
2022-10-22T02:06:17.967Z,1
2022-10-22T02:07:17.971Z,1.5
2022-10-22T02:08:17.974Z,2.1
2022-10-22T02:09:18.059Z,0.9
2022-10-22T02:10:18.005Z,1.8
2022-10-22T02:11:18.012Z,0.9
2022-10-22T02:12:17.997Z,0.7
2022-10-22T02:13:17.981Z,0.6
2022-10-22T02:14:17.991Z,1.5
2022-10-22T02:15:18.029Z,2.5
2022-10-22T02:16:18.003Z,1.8
2022-10-22T02:17:18.002Z,2.8
2022-10-22T02:18:17.988Z,2.8
2022-10-22T02:19:17.988Z,1.2
2022-10-22T02:20:18.041Z,2.8
2022-10-22T02:21:18.034Z,1.9
2022-10-22T02:22:18.021Z,2.2
2022-10-22T02:23:18.024Z,2.5
2022-10-22T02:24:18.035Z,2.8
2022-10-22T02:25:18.077Z,2.4
2022-10-22T02:26:18.022Z,1
2022-10-22T02:27:19.909Z,1.8
2022-10-22T02:28:18.043Z,3.4
2022-10-22T02:29:18.059Z,1.4
2022-10-22T02:30:18.126Z,1.8
2022-10-22T02:31:18.103Z,2
2022-10-22T02:32:18.081Z,2.8
2022-10-22T02:33:18.071Z,1.6
2022-10-22T02:34:18.095Z,0.7
2022-10-22T02:35:18.099Z,0
2022-10-22T02:36:18.107Z,1.2
2022-10-22T02:37:18.093Z,0.8
2022-10-22T02:38:18.091Z,1.3
2022-10-22T02:39:18.097Z,0.8
2022-10-22T02:40:18.101Z,1.1
2022-10-22T02:41:18.092Z,1.6
2022-10-22T02:42:18.098Z,0.7
2022-10-22T02:43:18.135Z,1.1
2022-10-22T02:44:18.196Z,3
2022-10-22T02:45:18.095Z,1.1
2022-10-22T02:46:18.095Z,2.1
2022-10-22T02:47:18.103Z,4.3
2022-10-22T02:48:18.186Z,4.4
2022-10-22T02:49:18.101Z,4.1
2022-10-22T02:50:18.102Z,2.8
2022-10-22T02:51:18.109Z,1.3
2022-10-22T02:52:18.095Z,1.9
2022-10-22T02:53:18.136Z,0.5
2022-10-22T02:54:18.108Z,1
2022-10-22T02:55:18.123Z,2.4
2022-10-22T02:56:18.104Z,1.2
2022-10-22T02:57:18.144Z,2.1
2022-10-22T02:58:18.120Z,2.1
2022-10-22T02:59:18.152Z,1.9
2022-10-22T03:00:18.151Z,2.2
2022-10-22T03:01:18.162Z,1
2022-10-22T03:02:18.126Z,0
2022-10-22T03:03:18.154Z,2.4
2022-10-22T03:04:18.135Z,2.3
2022-10-22T03:05:18.149Z,1.3
2022-10-22T03:06:18.269Z,1.4
2022-10-22T03:07:18.131Z,2.5
2022-10-22T03:08:18.137Z,0.6
2022-10-22T03:09:20.102Z,0
2022-10-22T03:10:18.192Z,0.8
2022-10-22T03:11:18.151Z,1
2022-10-22T03:12:18.166Z,1.2
2022-10-22T03:13:18.183Z,2.8
2022-10-22T03:14:18.169Z,2
2022-10-22T03:15:18.303Z,2.4
2022-10-22T03:16:18.184Z,2.6
2022-10-22T03:17:18.176Z,2.5
2022-10-22T03:18:18.210Z,2
2022-10-22T03:19:18.206Z,1.8
2022-10-22T03:20:18.203Z,2.8
2022-10-22T03:21:18.194Z,2.4
2022-10-22T03:22:18.200Z,0.8
2022-10-22T03:23:18.203Z,0.8
2022-10-22T03:24:18.217Z,0.7
2022-10-22T03:25:18.226Z,1.2
2022-10-22T03:26:18.217Z,1.4
2022-10-22T03:27:18.225Z,0
2022-10-22T03:28:18.209Z,1.3
2022-10-22T03:29:18.213Z,3.9
2022-10-22T03:30:18.217Z,2.4
2022-10-22T03:31:18.241Z,1.7
2022-10-22T03:32:18.221Z,0.9
2022-10-22T03:33:18.237Z,0.6
2022-10-22T03:34:18.233Z,0
2022-10-22T03:35:18.243Z,0
2022-10-22T03:36:18.231Z,0
2022-10-22T03:37:18.239Z,0.8
2022-10-22T03:38:18.244Z,0.5
2022-10-22T03:39:18.253Z,0.9
2022-10-22T03:40:18.254Z,0
2022-10-22T03:41:18.244Z,0.6
2022-10-22T03:42:18.291Z,0.5
2022-10-22T03:43:18.271Z,0.5
2022-10-22T03:44:18.275Z,0.6
2022-10-22T03:45:18.274Z,0
2022-10-22T03:46:18.262Z,1.4
2022-10-22T03:47:18.314Z,0.5
2022-10-22T03:48:18.263Z,0
2022-10-22T03:49:18.266Z,0
2022-10-22T03:50:18.285Z,0
2022-10-22T03:51:18.285Z,0
2022-10-22T03:52:18.295Z,1.2
2022-10-22T03:53:18.304Z,0.5
2022-10-22T03:54:18.312Z,0.5
2022-10-22T03:55:18.318Z,0.5
2022-10-22T03:56:18.297Z,0.5
2022-10-22T03:57:18.325Z,0
2022-10-22T03:58:18.327Z,0
2022-10-22T03:59:18.351Z,0
2022-10-22T04:00:18.383Z,0
2022-10-22T04:01:18.405Z,0
2022-10-22T04:02:18.328Z,0.5
2022-10-22T04:03:18.363Z,0
2022-10-22T04:04:18.331Z,0
2022-10-22T04:05:18.404Z,0
2022-10-22T04:06:18.334Z,0
2022-10-22T04:07:18.346Z,0.5
2022-10-22T04:08:18.340Z,0.9
2022-10-22T04:09:18.419Z,1.1
2022-10-22T04:10:18.369Z,1.1
2022-10-22T04:11:18.345Z,1
2022-10-22T04:12:18.359Z,1.1
2022-10-22T04:13:18.359Z,1.2
2022-10-22T04:14:18.365Z,1.2
2022-10-22T04:15:18.389Z,1.1
2022-10-22T04:16:18.383Z,1.2
2022-10-22T04:17:18.387Z,0.7
2022-10-22T04:18:18.371Z,0.5
2022-10-22T04:19:18.417Z,0.5
2022-10-22T04:20:18.395Z,0
2022-10-22T04:21:18.405Z,0
2022-10-22T04:22:18.398Z,0
2022-10-22T04:23:18.392Z,0
2022-10-22T04:24:18.394Z,0
2022-10-22T04:25:18.426Z,0
2022-10-22T04:26:18.402Z,0
2022-10-22T04:27:18.398Z,0
2022-10-22T04:28:18.433Z,0
2022-10-22T04:29:18.407Z,0
2022-10-22T04:30:18.430Z,0
2022-10-22T04:31:18.411Z,0
2022-10-22T04:32:18.414Z,0.8
2022-10-22T04:33:18.416Z,0.7
2022-10-22T04:34:18.418Z,1.7
2022-10-22T04:35:18.517Z,0.7
2022-10-22T04:36:18.422Z,0
2022-10-22T04:37:18.426Z,0
2022-10-22T04:38:18.463Z,0
2022-10-22T04:39:18.454Z,0.5
2022-10-22T04:40:18.471Z,0.7
2022-10-22T04:41:18.440Z,1.2
2022-10-22T04:42:18.446Z,0.9
2022-10-22T04:43:18.441Z,0
2022-10-22T04:44:18.443Z,0
2022-10-22T04:45:18.552Z,0
2022-10-22T04:46:18.445Z,0
2022-10-22T04:47:18.490Z,0
2022-10-22T04:48:18.470Z,0
2022-10-22T04:49:18.467Z,0
2022-10-22T04:50:18.498Z,0
2022-10-22T04:51:18.499Z,0
2022-10-22T04:52:18.491Z,0
2022-10-22T04:53:18.476Z,0
2022-10-22T04:54:18.508Z,0
2022-10-22T04:55:18.552Z,0
2022-10-22T04:56:18.483Z,0
2022-10-22T04:57:18.481Z,0
2022-10-22T04:58:18.494Z,0
2022-10-22T04:59:18.502Z,0
2022-10-22T05:00:18.527Z,0
2022-10-22T05:01:18.595Z,0
2022-10-22T05:02:18.514Z,0.8
2022-10-22T05:03:18.684Z,0.8
2022-10-22T05:04:18.505Z,0.8
2022-10-22T05:05:18.540Z,0.8
2022-10-22T05:06:18.541Z,0.7
2022-10-22T05:07:18.556Z,0
2022-10-22T05:08:18.523Z,1.1
2022-10-22T05:09:18.612Z,0.5
2022-10-22T05:10:18.549Z,0
2022-10-22T05:11:18.562Z,0
2022-10-22T05:12:18.548Z,0
2022-10-22T05:13:18.548Z,0
2022-10-22T05:14:18.536Z,0.6
2022-10-22T05:15:18.565Z,0
2022-10-22T05:16:18.554Z,0
2022-10-22T05:17:18.548Z,0
2022-10-22T05:18:20.285Z,0
2022-10-22T05:19:18.539Z,0
2022-10-22T05:20:18.589Z,0
2022-10-22T05:21:18.546Z,0
2022-10-22T05:22:18.541Z,0
2022-10-22T05:23:18.560Z,0
2022-10-22T05:24:18.651Z,0
2022-10-22T05:25:18.597Z,0
2022-10-22T05:26:18.552Z,0
2022-10-22T05:28:18.555Z,0
2022-10-22T05:29:18.560Z,0
2022-10-22T05:30:18.565Z,0
2022-10-22T05:31:18.715Z,0
2022-10-22T05:32:18.563Z,0
2022-10-22T05:33:21.865Z,0.8
2022-10-22T05:34:18.566Z,0
2022-10-22T05:35:18.574Z,0
2022-10-22T05:36:18.553Z,0
2022-10-22T05:37:18.574Z,0
2022-10-22T05:38:18.563Z,0.5
2022-10-22T05:39:18.602Z,0.5
2022-10-22T05:40:27.081Z,0.7
2022-10-22T05:41:18.582Z,0
2022-10-22T05:42:18.570Z,0.8
2022-10-22T05:43:18.574Z,0.5
2022-10-22T05:44:18.566Z,0
2022-10-22T05:45:18.577Z,0
2022-10-22T05:46:22.128Z,0
2022-10-22T05:47:18.603Z,0
2022-10-22T05:48:18.580Z,0
2022-10-22T05:49:18.582Z,0
2022-10-22T05:50:18.597Z,0
2022-10-22T05:51:18.581Z,0
2022-10-22T05:52:18.575Z,0
2022-10-22T05:53:18.594Z,0
2022-10-22T05:54:18.632Z,0
2022-10-22T05:55:18.642Z,0
2022-10-22T05:56:18.602Z,0
2022-10-22T05:57:18.624Z,0
2022-10-22T05:58:18.610Z,0
2022-10-22T05:59:18.602Z,0
2022-10-22T06:00:18.628Z,0
2022-10-22T06:01:18.608Z,0
2022-10-22T06:02:18.639Z,0
2022-10-22T06:03:18.618Z,0
2022-10-22T06:04:18.619Z,0
2022-10-22T06:05:18.659Z,0
2022-10-22T06:06:18.635Z,0
2022-10-22T06:07:18.646Z,0
2022-10-22T06:08:19.068Z,0
2022-10-22T06:09:18.637Z,0
2022-10-22T06:10:18.704Z,0
2022-10-22T06:11:18.675Z,0
2022-10-22T06:12:18.657Z,0
2022-10-22T06:13:18.654Z,0
2022-10-22T06:14:18.665Z,0
2022-10-22T06:15:18.724Z,0
2022-10-22T06:16:18.678Z,0
2022-10-22T06:17:18.680Z,0
2022-10-22T06:18:18.671Z,0
2022-10-22T06:19:18.674Z,0
2022-10-22T06:20:18.693Z,0
2022-10-22T06:21:18.688Z,0
2022-10-22T06:22:18.673Z,0
2022-10-22T06:23:18.707Z,0
2022-10-22T06:24:18.674Z,0
2022-10-22T06:25:18.692Z,0
2022-10-22T06:26:18.675Z,0
2022-10-22T06:27:18.745Z,0
2022-10-22T06:28:18.717Z,0
2022-10-22T06:29:18.702Z,0
2022-10-22T06:30:18.707Z,0
2022-10-22T06:31:18.699Z,0
2022-10-22T06:32:18.701Z,0
2022-10-22T06:33:18.713Z,0
2022-10-22T06:34:18.724Z,0
2022-10-22T06:35:18.721Z,0
2022-10-22T06:36:18.730Z,0
2022-10-22T06:37:18.742Z,0
2022-10-22T06:38:18.719Z,0
2022-10-22T06:39:18.733Z,0
2022-10-22T06:40:18.734Z,0
2022-10-22T06:41:18.738Z,0
2022-10-22T06:42:18.881Z,0
2022-10-22T06:43:18.810Z,0
2022-10-22T06:44:18.776Z,0
2022-10-22T06:45:18.759Z,0
2022-10-22T06:46:19.159Z,0
2022-10-22T06:47:18.746Z,0
2022-10-22T06:48:18.757Z,0
2022-10-22T06:49:18.764Z,0
2022-10-22T06:50:18.752Z,0
2022-10-22T06:51:18.756Z,0
2022-10-22T06:52:18.748Z,0
2022-10-22T06:54:18.752Z,0
2022-10-22T06:55:18.766Z,0
2022-10-22T06:56:18.754Z,0
2022-10-22T06:57:18.758Z,0.5
2022-10-22T06:58:18.750Z,0.7
2022-10-22T06:59:18.779Z,0.7
2022-10-22T07:00:18.841Z,0
2022-10-22T07:01:18.821Z,0
2022-10-22T07:02:18.761Z,0
2022-10-22T07:03:18.750Z,0
2022-10-22T07:04:18.765Z,0
2022-10-22T07:05:18.793Z,0
2022-10-22T07:06:18.770Z,0
2022-10-22T07:07:18.796Z,0
2022-10-22T07:08:18.788Z,0
2022-10-22T07:10:18.803Z,0
2022-10-22T07:11:18.782Z,0
2022-10-22T07:12:18.774Z,0
2022-10-22T07:13:18.777Z,0
2022-10-22T07:14:18.775Z,0
2022-10-22T07:15:18.823Z,0
2022-10-22T07:16:18.774Z,0
2022-10-22T07:17:18.777Z,0
2022-10-22T07:18:18.767Z,0
2022-10-22T07:19:18.810Z,0
2022-10-22T07:20:18.808Z,0
2022-10-22T07:21:18.865Z,0
2022-10-22T07:22:19.001Z,0
2022-10-22T07:23:18.899Z,0
2022-10-22T07:24:18.782Z,0
2022-10-22T07:25:18.802Z,0
2022-10-22T07:26:18.801Z,0
2022-10-22T07:27:18.809Z,0
2022-10-22T07:28:18.795Z,0.7
2022-10-22T07:29:18.814Z,0
2022-10-22T07:30:18.830Z,0
2022-10-22T07:31:18.827Z,0
2022-10-22T07:32:21.683Z,0
2022-10-22T07:33:18.808Z,0
2022-10-22T07:35:18.822Z,0
2022-10-22T07:36:18.816Z,0
2022-10-22T07:37:18.844Z,0
2022-10-22T07:38:18.847Z,0
2022-10-22T07:39:18.829Z,0
2022-10-22T07:40:18.836Z,0
2022-10-22T07:41:18.826Z,0.9
2022-10-22T07:42:18.940Z,0.5
2022-10-22T07:43:18.843Z,0
2022-10-22T07:44:18.841Z,0
2022-10-22T07:45:18.859Z,0
2022-10-22T07:46:18.836Z,0.5
2022-10-22T07:47:18.861Z,0
2022-10-22T07:48:18.835Z,0
2022-10-22T07:49:18.867Z,0
2022-10-22T07:50:18.866Z,0
2022-10-22T07:51:18.840Z,0
2022-10-22T07:52:18.890Z,0
2022-10-22T07:53:18.864Z,0
2022-10-22T07:54:18.857Z,0.5
2022-10-22T07:55:18.880Z,0
2022-10-22T07:56:18.900Z,0
2022-10-22T07:57:18.890Z,0
2022-10-22T07:58:18.873Z,0
2022-10-22T07:59:18.913Z,0
2022-10-22T08:00:20.421Z,0
2022-10-22T08:01:18.906Z,0
2022-10-22T08:02:18.896Z,0
2022-10-22T08:03:18.915Z,0
2022-10-22T08:04:18.922Z,0
2022-10-22T08:05:18.898Z,0
2022-10-22T08:06:18.897Z,0
2022-10-22T08:07:18.961Z,0
2022-10-22T08:08:18.894Z,0
2022-10-22T08:09:18.915Z,0
2022-10-22T08:10:18.926Z,0
2022-10-22T08:11:18.894Z,0
2022-10-22T08:12:18.885Z,0.5
2022-10-22T08:13:18.885Z,0.6
2022-10-22T08:14:18.891Z,0
2022-10-22T08:15:18.908Z,0
2022-10-22T08:16:18.896Z,0
2022-10-22T08:17:18.893Z,0
2022-10-22T08:18:18.920Z,0
2022-10-22T08:19:18.942Z,0
2022-10-22T08:20:18.910Z,0
2022-10-22T08:21:18.939Z,0
2022-10-22T08:22:19.090Z,0
2022-10-22T08:23:18.926Z,0
2022-10-22T08:24:18.937Z,0
2022-10-22T08:25:18.934Z,0.7
2022-10-22T08:26:18.928Z,0
2022-10-22T08:27:18.924Z,0
2022-10-22T08:28:19.919Z,0
2022-10-22T08:29:18.957Z,0
2022-10-22T08:30:18.945Z,0
2022-10-22T08:31:18.939Z,0
2022-10-22T08:32:18.989Z,0
2022-10-22T08:33:18.947Z,0
2022-10-22T08:34:18.934Z,0
2022-10-22T08:35:19.005Z,0
2022-10-22T08:36:19.046Z,0
2022-10-22T08:37:19.071Z,0
2022-10-22T08:38:18.988Z,0
2022-10-22T08:39:18.948Z,0
2022-10-22T08:40:19.018Z,0
2022-10-22T08:41:18.959Z,0
2022-10-22T08:42:18.957Z,0
2022-10-22T08:43:18.962Z,0
2022-10-22T08:44:18.956Z,0
2022-10-22T08:45:18.970Z,0
2022-10-22T08:46:18.965Z,0
2022-10-22T08:47:21.437Z,0
2022-10-22T08:48:18.965Z,0.7
2022-10-22T08:49:18.978Z,0
2022-10-22T08:50:19.015Z,0.7
2022-10-22T08:51:19.008Z,0.6
2022-10-22T08:52:18.979Z,0
2022-10-22T08:53:19.057Z,0
2022-10-22T08:54:18.994Z,0.5
2022-10-22T08:55:18.998Z,0
2022-10-22T08:56:19.001Z,1.1
2022-10-22T08:57:19.075Z,0
2022-10-22T08:58:19.007Z,0.7
2022-10-22T08:59:18.997Z,1.3
2022-10-22T09:00:19.058Z,0.8
2022-10-22T09:01:18.998Z,0
2022-10-22T09:02:19.000Z,0
2022-10-22T09:03:19.062Z,1.1
2022-10-22T09:04:19.005Z,0.6
2022-10-22T09:05:19.026Z,0
2022-10-22T09:06:19.043Z,0
2022-10-22T09:07:19.057Z,0.8
2022-10-22T09:08:19.049Z,0.7
2022-10-22T09:09:19.095Z,0
2022-10-22T09:10:19.131Z,0.7
2022-10-22T09:11:19.038Z,0.9
2022-10-22T09:12:19.399Z,1.1
2022-10-22T09:13:19.040Z,0
2022-10-22T09:14:19.058Z,1
2022-10-22T09:15:19.043Z,0
2022-10-22T09:16:19.039Z,1.2
2022-10-22T09:17:19.068Z,2.2
2022-10-22T09:18:19.109Z,1.8
2022-10-22T09:19:19.065Z,0.5
2022-10-22T09:20:19.095Z,1.1
2022-10-22T09:21:19.063Z,2.4
2022-10-22T09:22:19.069Z,1.2
2022-10-22T09:23:19.105Z,2.4
2022-10-22T09:24:19.097Z,2.1
2022-10-22T09:25:19.106Z,0.5
2022-10-22T09:26:19.071Z,2.9
2022-10-22T09:27:19.072Z,0.5
2022-10-22T09:28:19.083Z,0.5
2022-10-22T09:29:19.077Z,0.8
2022-10-22T09:30:19.117Z,2.4
2022-10-22T09:31:19.109Z,2.9
2022-10-22T09:32:19.106Z,2.4
2022-10-22T09:33:20.228Z,1.8
2022-10-22T09:34:19.097Z,1.6
2022-10-22T09:35:19.116Z,1.1
2022-10-22T09:36:19.103Z,1.2
2022-10-22T09:37:19.104Z,0.7
2022-10-22T09:38:19.102Z,1.2
2022-10-22T09:39:19.140Z,1.6
2022-10-22T09:40:19.140Z,1
2022-10-22T09:41:19.097Z,2.1
2022-10-22T09:42:19.115Z,1.9
2022-10-22T09:43:19.113Z,2.8
2022-10-22T09:44:19.105Z,1.8
2022-10-22T09:45:19.131Z,0.9
2022-10-22T09:46:19.124Z,0.6
2022-10-22T09:47:19.143Z,1.1
2022-10-22T09:48:19.101Z,1.6
2022-10-22T09:49:19.135Z,2.4
2022-10-22T09:50:19.138Z,2.8
2022-10-22T09:51:19.119Z,3.5
2022-10-22T09:52:19.111Z,1.8
2022-10-22T09:53:19.114Z,1.2
2022-10-22T09:54:19.123Z,0.8
2022-10-22T09:55:19.176Z,1.2
2022-10-22T09:56:19.221Z,1.4
2022-10-22T09:57:19.121Z,0.8
2022-10-22T09:58:19.151Z,1.6
2022-10-22T09:59:19.144Z,2
2022-10-22T10:00:19.169Z,0.6
2022-10-22T10:01:19.136Z,0.7
2022-10-22T10:02:33.854Z,1.6
2022-10-22T10:03:19.299Z,2.5
2022-10-22T10:04:19.219Z,2.4
2022-10-22T10:05:19.155Z,3.6
2022-10-22T10:06:19.162Z,2.6
2022-10-22T10:07:19.187Z,3.2
2022-10-22T10:08:19.189Z,3.1
2022-10-22T10:09:19.258Z,2.4
2022-10-22T10:10:19.168Z,1.2
2022-10-22T10:11:19.195Z,1.2
2022-10-22T10:12:19.158Z,2.4
2022-10-22T10:13:19.197Z,3.3
2022-10-22T10:14:19.169Z,2
2022-10-22T10:15:19.193Z,3
2022-10-22T10:16:19.188Z,2.6
2022-10-22T10:17:19.180Z,2.4
2022-10-22T10:18:19.181Z,2.8
2022-10-22T10:19:19.232Z,2.7
2022-10-22T10:20:19.215Z,2.9
2022-10-22T10:21:19.200Z,2
2022-10-22T10:22:19.189Z,1.6
2022-10-22T10:23:20.580Z,0.9
2022-10-22T10:24:19.210Z,1.8
2022-10-22T10:25:19.214Z,0.8
2022-10-22T10:26:19.229Z,0.9
2022-10-22T10:27:19.221Z,1.2
2022-10-22T10:28:19.192Z,2
2022-10-22T10:29:19.236Z,2.7
2022-10-22T10:30:19.272Z,0.8
2022-10-22T10:31:19.231Z,1.5
2022-10-22T10:32:21.026Z,1.2
2022-10-22T10:33:19.214Z,1.5
2022-10-22T10:34:19.271Z,1.2
2022-10-22T10:35:19.373Z,1.5
2022-10-22T10:36:19.239Z,0.6
2022-10-22T10:37:19.229Z,3.6
2022-10-22T10:38:19.226Z,2.9
2022-10-22T10:39:19.249Z,2.8
2022-10-22T10:40:19.237Z,2.7
2022-10-22T10:41:19.247Z,4
2022-10-22T10:42:19.224Z,1.3
2022-10-22T10:43:19.272Z,2.7
2022-10-22T10:44:19.237Z,1.9
2022-10-22T10:45:19.257Z,4.3
2022-10-22T10:46:19.250Z,2.5
2022-10-22T10:47:19.242Z,3.7
2022-10-22T10:48:19.263Z,2.4
2022-10-22T10:49:19.259Z,0.8
2022-10-22T10:50:19.274Z,2.4
2022-10-22T10:51:19.256Z,1.9
2022-10-22T10:52:21.111Z,2.9
2022-10-22T10:53:19.261Z,1.8
2022-10-22T10:54:19.268Z,0.9
2022-10-22T10:55:19.282Z,1
2022-10-22T10:56:19.279Z,2.5
2022-10-22T10:57:19.272Z,1.4
2022-10-22T10:58:19.268Z,0.8
2022-10-22T10:59:19.322Z,0.7
2022-10-22T11:00:19.300Z,2.1
2022-10-22T11:01:19.322Z,3.4
2022-10-22T11:02:19.289Z,0
2022-10-22T11:03:19.279Z,2.6
2022-10-22T11:04:19.283Z,2.4
2022-10-22T11:05:19.317Z,3.2
2022-10-22T11:06:20.442Z,3.3
2022-10-22T11:07:30.165Z,2.8
2022-10-22T11:08:19.288Z,1.6
2022-10-22T11:09:19.355Z,3.1
2022-10-22T11:10:19.318Z,2.1
2022-10-22T11:11:19.485Z,3.3
2022-10-22T11:12:19.296Z,1.6
2022-10-22T11:13:19.332Z,2.7
2022-10-22T11:14:19.329Z,3.3
2022-10-22T11:15:19.497Z,3.4
2022-10-22T11:16:19.310Z,2.6
2022-10-22T11:17:19.315Z,4.2
2022-10-22T11:18:19.308Z,3.5
2022-10-22T11:19:23.077Z,2.5
2022-10-22T11:20:19.364Z,1
2022-10-22T11:21:19.327Z,3.6
2022-10-22T11:22:21.426Z,1.6
2022-10-22T11:23:21.193Z,2.8
2022-10-22T11:24:19.335Z,2
2022-10-22T11:25:19.353Z,2.6
2022-10-22T11:26:19.356Z,3.4
2022-10-22T11:27:19.346Z,2.4
2022-10-22T11:28:19.345Z,2.1
2022-10-22T11:29:19.357Z,2.7
2022-10-22T11:30:19.396Z,2.4
2022-10-22T11:31:19.382Z,0
2022-10-22T11:32:19.377Z,3.2
2022-10-22T11:33:19.371Z,3.1
2022-10-22T11:34:33.053Z,2.5
2022-10-22T11:35:23.530Z,2.3
2022-10-22T11:36:19.415Z,3.9
2022-10-22T11:37:19.404Z,1.8
2022-10-22T11:38:19.389Z,1.4
2022-10-22T11:39:19.396Z,1.9
2022-10-22T11:40:19.394Z,3.7
2022-10-22T11:41:19.377Z,3
2022-10-22T11:42:19.406Z,3.5
2022-10-22T11:43:19.385Z,2.7
2022-10-22T11:44:19.377Z,1.2
2022-10-22T11:45:19.438Z,4.1
2022-10-22T11:46:19.396Z,2
2022-10-22T11:47:19.414Z,1.2
2022-10-22T11:48:19.396Z,0.8
2022-10-22T11:49:19.393Z,3.1
2022-10-22T11:50:19.409Z,1.1
2022-10-22T11:51:19.395Z,1.6
2022-10-22T11:52:19.395Z,0.8
2022-10-22T11:53:19.404Z,2
2022-10-22T11:54:19.402Z,2.9
2022-10-22T11:55:19.414Z,2.4
2022-10-22T11:56:19.419Z,2.5
2022-10-22T11:57:19.441Z,1.4
2022-10-22T11:58:19.430Z,1.5
2022-10-22T11:59:19.425Z,1.9
2022-10-22T12:00:19.418Z,2
2022-10-22T12:01:19.413Z,1.9
2022-10-22T12:02:19.456Z,2.8
2022-10-22T12:03:19.463Z,0.9
2022-10-22T12:04:19.490Z,2.7
2022-10-22T12:05:19.444Z,1
2022-10-22T12:06:19.431Z,0.9
2022-10-22T12:07:19.462Z,2.4
2022-10-22T12:08:19.440Z,3.7
2022-10-22T12:09:19.496Z,0
2022-10-22T12:10:19.452Z,1.7
2022-10-22T12:11:19.452Z,0.5
2022-10-22T12:12:19.454Z,1.4
2022-10-22T12:13:19.442Z,2.7
2022-10-22T12:14:19.454Z,0.8
2022-10-22T12:15:19.463Z,2.7
2022-10-22T12:16:23.673Z,2.7
2022-10-22T12:17:19.474Z,2.3
2022-10-22T12:18:19.510Z,2.8
2022-10-22T12:19:19.496Z,1.2
2022-10-22T12:20:19.491Z,0.8
2022-10-22T12:21:19.461Z,1.2
2022-10-22T12:22:19.481Z,0.8
2022-10-22T12:23:19.513Z,0.6
2022-10-22T12:24:19.488Z,3.4
2022-10-22T12:25:19.500Z,2.8
2022-10-22T12:26:19.508Z,3.4
2022-10-22T12:27:22.262Z,2.4
2022-10-22T12:28:19.550Z,1.1
2022-10-22T12:29:19.499Z,2.5
2022-10-22T12:30:19.527Z,1.4
2022-10-22T12:31:19.503Z,3.6
2022-10-22T12:32:19.510Z,1
2022-10-22T12:33:19.520Z,2.4
2022-10-22T12:34:19.525Z,1.2
2022-10-22T12:35:19.589Z,2.9
2022-10-22T12:36:19.521Z,1.8
2022-10-22T12:37:19.542Z,1.8
2022-10-22T12:38:19.524Z,2
2022-10-22T12:39:19.530Z,3.1
2022-10-22T12:40:19.562Z,1.6
2022-10-22T12:41:19.554Z,1.2
2022-10-22T12:42:19.529Z,2.2
2022-10-22T12:43:19.528Z,2.5
2022-10-22T12:44:19.541Z,0.5
2022-10-22T12:45:19.545Z,0
2022-10-22T12:46:19.536Z,0
2022-10-22T12:47:19.537Z,2
2022-10-22T12:48:19.536Z,2.4
2022-10-22T12:49:19.535Z,2.4
2022-10-22T12:50:19.549Z,2.4
2022-10-22T12:51:19.638Z,3.2
2022-10-22T12:52:19.570Z,1.2
2022-10-22T12:53:19.569Z,3.2
2022-10-22T12:54:19.558Z,2.8
2022-10-22T12:55:19.590Z,2.3
2022-10-22T12:56:19.607Z,0.8
2022-10-22T12:57:19.580Z,1.8
2022-10-22T12:58:19.568Z,1.1
2022-10-22T12:59:19.566Z,2.4
2022-10-22T13:00:19.622Z,1.2
2022-10-22T13:01:19.679Z,0
2022-10-22T13:02:19.590Z,1.3
2022-10-22T13:03:19.596Z,1.2
2022-10-22T13:04:19.588Z,1.8
2022-10-22T13:05:19.629Z,1.7
2022-10-22T13:06:19.635Z,0
2022-10-22T13:07:21.226Z,0
2022-10-22T13:08:19.665Z,1.8
2022-10-22T13:09:21.451Z,0.8
2022-10-22T13:10:19.639Z,0.8
2022-10-22T13:11:19.627Z,1.1
2022-10-22T13:12:19.635Z,3
2022-10-22T13:13:19.620Z,1.4
2022-10-22T13:14:19.628Z,2.4
2022-10-22T13:15:19.636Z,2
2022-10-22T13:16:19.623Z,2.1
2022-10-22T13:17:19.635Z,1.3
2022-10-22T13:18:19.625Z,0.7
2022-10-22T13:19:19.631Z,2.3
2022-10-22T13:20:19.660Z,2.2
2022-10-22T13:21:19.638Z,1.1
2022-10-22T13:22:19.660Z,2.5
2022-10-22T13:23:19.668Z,2.6
2022-10-22T13:24:19.651Z,2.1
2022-10-22T13:25:19.654Z,2.1
2022-10-22T13:26:19.635Z,0.9
2022-10-22T13:27:19.637Z,2.4
2022-10-22T13:28:19.663Z,2.2
2022-10-22T13:29:19.700Z,1.2
2022-10-22T13:30:19.674Z,1.9
2022-10-22T13:31:19.671Z,1.2
2022-10-22T13:32:19.658Z,1.8
2022-10-22T13:33:19.685Z,0.8
2022-10-22T13:34:19.649Z,1.3
2022-10-22T13:35:19.669Z,0
2022-10-22T13:36:19.656Z,2.4
2022-10-22T13:37:19.669Z,0.7
2022-10-22T13:38:19.657Z,0.7
2022-10-22T13:39:19.719Z,1.2
2022-10-22T13:40:19.669Z,1.1
2022-10-22T13:41:19.659Z,0.8
2022-10-22T13:42:19.677Z,0.9
2022-10-22T13:43:19.664Z,1.2
2022-10-22T13:44:19.720Z,2.1
2022-10-22T13:45:19.669Z,0.8
2022-10-22T13:46:19.677Z,0.8
2022-10-22T13:47:19.677Z,1.3
2022-10-22T13:48:19.694Z,2.1
2022-10-22T13:49:19.727Z,0.7
2022-10-22T13:50:19.697Z,2.3
2022-10-22T13:51:19.667Z,0.7
2022-10-22T13:52:19.671Z,0.7
2022-10-22T13:53:19.695Z,0.8
2022-10-22T13:54:19.684Z,0
2022-10-22T13:55:19.716Z,0.6
2022-10-22T13:56:19.674Z,0
2022-10-22T13:57:19.678Z,0
2022-10-22T13:58:19.733Z,0
2022-10-22T13:59:21.247Z,0
2022-10-22T14:00:19.720Z,0
2022-10-22T14:01:19.722Z,0
2022-10-22T14:02:19.691Z,0.8
2022-10-22T14:03:19.691Z,2.5
2022-10-22T14:04:19.689Z,0.8
2022-10-22T14:05:19.697Z,0.5
2022-10-22T14:06:19.702Z,1
2022-10-22T14:07:19.700Z,0.9
2022-10-22T14:08:19.692Z,0
2022-10-22T14:09:19.717Z,0.8
2022-10-22T14:10:19.720Z,0
2022-10-22T14:11:19.759Z,0
2022-10-22T14:12:19.719Z,0
2022-10-22T14:13:19.715Z,0
2022-10-22T14:14:19.750Z,0
2022-10-22T14:15:19.734Z,0
2022-10-22T14:16:19.723Z,0